Terminal Aerodrome Forecast
Issued by NWS Milwaukee/Sullivan, WI

Home | Current Version | Previous Version | Text Only | Print | Product List | Glossary On
Versions: 1 2 3 4 5 6 7 8 9 10 11 12 13 14 15 16 17 18 19 20 21 22 23 24 25 26 27 28 29 30 31 32
000
FTUS43 KMKX 281134
TAFMKE
TAF
KMKE 281134Z 2812/2918 24005KT P6SM FEW110 FEW200
     FM281900 13006KT P6SM SCT070 BKN090
     FM282200 10005KT P6SM VCSH OVC050
     FM290100 05004KT 4SM -RA BKN025 OVC040
     FM290400 02006KT P6SM VCSH OVC015
     FM291000 02012KT P6SM BKN035=

USA.gov is the U.S. government's official web portal to all federal, state and local government web resources and services.